sensor_id;sensor_type;location;lat;lon;timestamp;P1;durP1;ratioP1;P2;durP2;ratioP2
1567;SDS011;777;47.156;8.326;2023-09-19T00:02:29;4.18;;;1.73;;
1567;SDS011;777;47.156;8.326;2023-09-19T00:04:58;3.38;;;1.70;;
1567;SDS011;777;47.156;8.326;2023-09-19T00:07:28;4.43;;;1.98;;
1567;SDS011;777;47.156;8.326;2023-09-19T00:09:55;4.03;;;1.80;;
1567;SDS011;777;47.156;8.326;2023-09-19T00:12:22;3.17;;;1.75;;
1567;SDS011;777;47.156;8.326;2023-09-19T00:14:49;3.30;;;1.60;;
1567;SDS011;777;47.156;8.326;2023-09-19T00:17:19;3.70;;;1.73;;
1567;SDS011;777;47.156;8.326;2023-09-19T00:19:47;2.72;;;1.40;;
1567;SDS011;777;47.156;8.326;2023-09-19T00:22:16;3.53;;;1.20;;
1567;SDS011;777;47.156;8.326;2023-09-19T00:24:44;3.53;;;1.30;;
1567;SDS011;777;47.156;8.326;2023-09-19T00:27:11;1.85;;;1.10;;
1567;SDS011;777;47.156;8.326;2023-09-19T00:29:38;4.65;;;1.50;;
1567;SDS011;777;47.156;8.326;2023-09-19T00:32:06;2.40;;;1.25;;
1567;SDS011;777;47.156;8.326;2023-09-19T00:34:35;2.85;;;1.02;;
1567;SDS011;777;47.156;8.326;2023-09-19T00:37:02;2.65;;;1.10;;
1567;SDS011;777;47.156;8.326;2023-09-19T00:39:29;1.80;;;0.95;;
1567;SDS011;777;47.156;8.326;2023-09-19T00:41:56;3.30;;;0.90;;
1567;SDS011;777;47.156;8.326;2023-09-19T00:44:30;1.20;;;0.95;;
1567;SDS011;777;47.156;8.326;2023-09-19T00:46:58;3.95;;;0.82;;
1567;SDS011;777;47.156;8.326;2023-09-19T00:49:25;1.60;;;0.90;;
1567;SDS011;777;47.156;8.326;2023-09-19T00:51:54;1.88;;;1.00;;
1567;SDS011;777;47.156;8.326;2023-09-19T00:54:21;1.42;;;0.75;;
1567;SDS011;777;47.156;8.326;2023-09-19T00:56:48;2.17;;;1.33;;
1567;SDS011;777;47.156;8.326;2023-09-19T00:59:16;1.65;;;0.88;;
1567;SDS011;777;47.156;8.326;2023-09-19T01:01:43;1.15;;;0.70;;
1567;SDS011;777;47.156;8.326;2023-09-19T01:04:11;3.00;;;1.10;;
1567;SDS011;777;47.156;8.326;2023-09-19T01:06:39;1.35;;;0.85;;
1567;SDS011;777;47.156;8.326;2023-09-19T01:09:07;1.27;;;0.70;;
1567;SDS011;777;47.156;8.326;2023-09-19T01:11:37;5.00;;;0.93;;
1567;SDS011;777;47.156;8.326;2023-09-19T01:14:13;2.38;;;0.80;;
1567;SDS011;777;47.156;8.326;2023-09-19T01:16:50;1.85;;;0.90;;
1567;SDS011;777;47.156;8.326;2023-09-19T01:19:46;2.08;;;0.77;;
1567;SDS011;777;47.156;8.326;2023-09-19T01:22:36;1.48;;;0.80;;
1567;SDS011;777;47.156;8.326;2023-09-19T01:25:36;3.63;;;0.85;;
1567;SDS011;777;47.156;8.326;2023-09-19T01:28:29;1.02;;;0.80;;
1567;SDS011;777;47.156;8.326;2023-09-19T01:31:03;1.98;;;0.65;;
1567;SDS011;777;47.156;8.326;2023-09-19T01:36:22;1.65;;;0.82;;
1567;SDS011;777;47.156;8.326;2023-09-19T01:38:50;1.90;;;0.50;;
1567;SDS011;777;47.156;8.326;2023-09-19T01:41:21;2.33;;;0.70;;
1567;SDS011;777;47.156;8.326;2023-09-19T01:43:56;1.25;;;0.60;;
1567;SDS011;777;47.156;8.326;2023-09-19T01:46:28;1.63;;;0.80;;
1567;SDS011;777;47.156;8.326;2023-09-19T01:49:03;1.30;;;0.98;;
1567;SDS011;777;47.156;8.326;2023-09-19T01:51:43;0.90;;;0.63;;
1567;SDS011;777;47.156;8.326;2023-09-19T01:54:18;1.95;;;0.77;;
1567;SDS011;777;47.156;8.326;2023-09-19T01:56:54;2.92;;;0.70;;
1567;SDS011;777;47.156;8.326;2023-09-19T01:59:31;1.95;;;0.90;;
1567;SDS011;777;47.156;8.326;2023-09-19T02:02:07;2.10;;;0.70;;
1567;SDS011;777;47.156;8.326;2023-09-19T02:04:35;2.75;;;0.70;;
1567;SDS011;777;47.156;8.326;2023-09-19T02:07:02;1.27;;;0.80;;
1567;SDS011;777;47.156;8.326;2023-09-19T02:09:33;1.70;;;0.70;;
1567;SDS011;777;47.156;8.326;2023-09-19T02:12:03;1.20;;;0.70;;
1567;SDS011;777;47.156;8.326;2023-09-19T02:14:32;0.80;;;0.63;;
1567;SDS011;777;47.156;8.326;2023-09-19T02:17:02;1.42;;;0.80;;
1567;SDS011;777;47.156;8.326;2023-09-19T02:19:32;1.10;;;0.60;;
1567;SDS011;777;47.156;8.326;2023-09-19T02:21:59;2.42;;;1.00;;
1567;SDS011;777;47.156;8.326;2023-09-19T02:24:28;0.90;;;0.60;;
1567;SDS011;777;47.156;8.326;2023-09-19T02:26:56;1.40;;;0.60;;
1567;SDS011;777;47.156;8.326;2023-09-19T02:29:24;1.20;;;0.70;;
1567;SDS011;777;47.156;8.326;2023-09-19T02:31:52;1.88;;;0.90;;
1567;SDS011;777;47.156;8.326;2023-09-19T02:34:21;1.27;;;0.70;;
1567;SDS011;777;47.156;8.326;2023-09-19T02:36:50;1.00;;;0.70;;
1567;SDS011;777;47.156;8.326;2023-09-19T02:39:19;2.95;;;0.98;;
1567;SDS011;777;47.156;8.326;2023-09-19T02:41:46;1.35;;;0.70;;
1567;SDS011;777;47.156;8.326;2023-09-19T02:44:13;1.13;;;0.73;;
1567;SDS011;777;47.156;8.326;2023-09-19T02:46:40;1.75;;;0.77;;
1567;SDS011;777;47.156;8.326;2023-09-19T02:49:08;0.98;;;0.70;;
1567;SDS011;777;47.156;8.326;2023-09-19T02:51:36;1.98;;;0.98;;
1567;SDS011;777;47.156;8.326;2023-09-19T02:54:05;1.77;;;1.08;;
1567;SDS011;777;47.156;8.326;2023-09-19T02:56:32;1.35;;;0.90;;
1567;SDS011;777;47.156;8.326;2023-09-19T02:59:00;1.17;;;0.80;;
1567;SDS011;777;47.156;8.326;2023-09-19T03:01:28;1.20;;;0.80;;
1567;SDS011;777;47.156;8.326;2023-09-19T03:03:56;1.65;;;0.65;;
1567;SDS011;777;47.156;8.326;2023-09-19T03:06:23;3.53;;;1.00;;
1567;SDS011;777;47.156;8.326;2023-09-19T03:08:50;0.90;;;0.60;;
1567;SDS011;777;47.156;8.326;2023-09-19T03:11:21;3.35;;;0.80;;
1567;SDS011;777;47.156;8.326;2023-09-19T03:13:51;1.05;;;0.88;;
1567;SDS011;777;47.156;8.326;2023-09-19T03:16:19;2.70;;;1.00;;
1567;SDS011;777;47.156;8.326;2023-09-19T03:18:50;1.30;;;0.70;;
1567;SDS011;777;47.156;8.326;2023-09-19T03:21:17;2.33;;;0.60;;
1567;SDS011;777;47.156;8.326;2023-09-19T03:23:45;1.90;;;0.70;;
1567;SDS011;777;47.156;8.326;2023-09-19T03:26:12;1.27;;;0.70;;
1567;SDS011;777;47.156;8.326;2023-09-19T03:28:43;0.98;;;0.68;;
1567;SDS011;777;47.156;8.326;2023-09-19T03:31:12;2.45;;;0.80;;
1567;SDS011;777;47.156;8.326;2023-09-19T03:33:39;1.88;;;0.60;;
1567;SDS011;777;47.156;8.326;2023-09-19T03:36:06;1.80;;;0.70;;
1567;SDS011;777;47.156;8.326;2023-09-19T03:38:33;1.30;;;0.68;;
1567;SDS011;777;47.156;8.326;2023-09-19T03:41:01;0.70;;;0.50;;
1567;SDS011;777;47.156;8.326;2023-09-19T03:43:28;0.70;;;0.40;;
1567;SDS011;777;47.156;8.326;2023-09-19T03:45:57;1.10;;;0.68;;
1567;SDS011;777;47.156;8.326;2023-09-19T03:48:30;0.90;;;0.60;;
1567;SDS011;777;47.156;8.326;2023-09-19T03:50:57;1.40;;;0.50;;
1567;SDS011;777;47.156;8.326;2023-09-19T03:53:24;1.80;;;0.60;;
1567;SDS011;777;47.156;8.326;2023-09-19T03:55:51;2.00;;;0.70;;
1567;SDS011;777;47.156;8.326;2023-09-19T03:58:18;0.93;;;0.63;;
1567;SDS011;777;47.156;8.326;2023-09-19T04:00:45;1.65;;;0.60;;
1567;SDS011;777;47.156;8.326;2023-09-19T04:03:14;2.05;;;0.60;;
1567;SDS011;777;47.156;8.326;2023-09-19T04:05:46;1.48;;;0.70;;
1567;SDS011;777;47.156;8.326;2023-09-19T04:08:13;0.90;;;0.45;;
1567;SDS011;777;47.156;8.326;2023-09-19T04:10:41;1.38;;;0.80;;
1567;SDS011;777;47.156;8.326;2023-09-19T04:13:10;1.00;;;0.68;;
1567;SDS011;777;47.156;8.326;2023-09-19T04:15:37;2.67;;;0.70;;
1567;SDS011;777;47.156;8.326;2023-09-19T04:18:05;0.93;;;0.50;;
1567;SDS011;777;47.156;8.326;2023-09-19T04:20:34;1.17;;;0.60;;
1567;SDS011;777;47.156;8.326;2023-09-19T04:23:01;1.95;;;0.90;;
1567;SDS011;777;47.156;8.326;2023-09-19T04:25:29;1.77;;;0.77;;
1567;SDS011;777;47.156;8.326;2023-09-19T04:27:57;1.35;;;1.00;;
1567;SDS011;777;47.156;8.326;2023-09-19T04:30:25;1.30;;;0.65;;
1567;SDS011;777;47.156;8.326;2023-09-19T04:32:52;2.00;;;0.57;;
1567;SDS011;777;47.156;8.326;2023-09-19T04:35:19;1.63;;;0.60;;
1567;SDS011;777;47.156;8.326;2023-09-19T04:37:47;2.83;;;0.75;;
1567;SDS011;777;47.156;8.326;2023-09-19T04:40:14;0.98;;;0.52;;
1567;SDS011;777;47.156;8.326;2023-09-19T04:42:42;1.58;;;0.60;;
1567;SDS011;777;47.156;8.326;2023-09-19T04:45:10;1.48;;;0.60;;
1567;SDS011;777;47.156;8.326;2023-09-19T04:47:37;1.85;;;0.60;;
1567;SDS011;777;47.156;8.326;2023-09-19T04:50:06;1.30;;;0.57;;
1567;SDS011;777;47.156;8.326;2023-09-19T04:52:38;1.33;;;0.70;;
1567;SDS011;777;47.156;8.326;2023-09-19T04:55:10;1.58;;;0.80;;
1567;SDS011;777;47.156;8.326;2023-09-19T04:57:41;1.73;;;0.60;;
1567;SDS011;777;47.156;8.326;2023-09-19T05:00:10;1.50;;;0.77;;
1567;SDS011;777;47.156;8.326;2023-09-19T05:02:40;1.73;;;0.90;;
1567;SDS011;777;47.156;8.326;2023-09-19T05:05:07;2.70;;;0.70;;
1567;SDS011;777;47.156;8.326;2023-09-19T05:07:35;4.57;;;1.50;;
1567;SDS011;777;47.156;8.326;2023-09-19T05:10:02;1.25;;;0.90;;
1567;SDS011;777;47.156;8.326;2023-09-19T05:12:33;1.55;;;0.70;;
1567;SDS011;777;47.156;8.326;2023-09-19T05:15:01;1.30;;;0.60;;
1567;SDS011;777;47.156;8.326;2023-09-19T05:17:29;1.90;;;0.90;;
1567;SDS011;777;47.156;8.326;2023-09-19T05:19:56;1.30;;;0.90;;
1567;SDS011;777;47.156;8.326;2023-09-19T05:22:26;2.95;;;0.75;;
1567;SDS011;777;47.156;8.326;2023-09-19T05:24:54;3.85;;;0.70;;
1567;SDS011;777;47.156;8.326;2023-09-19T05:27:21;3.65;;;0.80;;
1567;SDS011;777;47.156;8.326;2023-09-19T05:29:49;1.23;;;0.60;;
1567;SDS011;777;47.156;8.326;2023-09-19T05:32:18;2.03;;;0.93;;
1567;SDS011;777;47.156;8.326;2023-09-19T05:34:45;4.05;;;0.70;;
1567;SDS011;777;47.156;8.326;2023-09-19T05:37:13;2.05;;;1.00;;
1567;SDS011;777;47.156;8.326;2023-09-19T05:39:41;3.70;;;0.90;;
1567;SDS011;777;47.156;8.326;2023-09-19T05:42:09;3.50;;;0.90;;
1567;SDS011;777;47.156;8.326;2023-09-19T05:44:36;2.65;;;0.90;;
1567;SDS011;777;47.156;8.326;2023-09-19T05:47:04;1.17;;;0.70;;
1567;SDS011;777;47.156;8.326;2023-09-19T05:49:35;1.33;;;0.50;;
1567;SDS011;777;47.156;8.326;2023-09-19T05:52:04;2.47;;;1.00;;
1567;SDS011;777;47.156;8.326;2023-09-19T05:54:31;1.02;;;0.70;;
1567;SDS011;777;47.156;8.326;2023-09-19T05:56:59;1.50;;;0.93;;
1567;SDS011;777;47.156;8.326;2023-09-19T05:59:27;1.95;;;0.90;;
1567;SDS011;777;47.156;8.326;2023-09-19T06:01:54;2.08;;;0.88;;
1567;SDS011;777;47.156;8.326;2023-09-19T06:04:21;2.08;;;0.90;;
1567;SDS011;777;47.156;8.326;2023-09-19T06:06:49;1.92;;;0.80;;
1567;SDS011;777;47.156;8.326;2023-09-19T06:09:16;2.70;;;0.70;;
1567;SDS011;777;47.156;8.326;2023-09-19T06:11:44;1.98;;;0.80;;
1567;SDS011;777;47.156;8.326;2023-09-19T06:14:12;0.93;;;0.50;;
1567;SDS011;777;47.156;8.326;2023-09-19T06:16:39;1.92;;;0.70;;
1567;SDS011;777;47.156;8.326;2023-09-19T06:19:08;1.15;;;0.60;;
1567;SDS011;777;47.156;8.326;2023-09-19T06:21:36;1.13;;;0.52;;
1567;SDS011;777;47.156;8.326;2023-09-19T06:24:04;2.30;;;0.60;;
1567;SDS011;777;47.156;8.326;2023-09-19T06:26:31;2.15;;;0.50;;
1567;SDS011;777;47.156;8.326;2023-09-19T06:28:58;1.75;;;0.80;;
1567;SDS011;777;47.156;8.326;2023-09-19T06:31:26;1.42;;;0.70;;
1567;SDS011;777;47.156;8.326;2023-09-19T06:33:52;1.30;;;0.68;;
1567;SDS011;777;47.156;8.326;2023-09-19T06:36:19;2.05;;;0.98;;
1567;SDS011;777;47.156;8.326;2023-09-19T06:38:49;2.00;;;1.00;;
1567;SDS011;777;47.156;8.326;2023-09-19T06:41:17;2.17;;;1.17;;
1567;SDS011;777;47.156;8.326;2023-09-19T06:43:44;2.78;;;1.25;;
1567;SDS011;777;47.156;8.326;2023-09-19T06:46:11;1.95;;;1.02;;
1567;SDS011;777;47.156;8.326;2023-09-19T06:48:39;2.55;;;1.30;;
1567;SDS011;777;47.156;8.326;2023-09-19T06:51:06;2.33;;;1.20;;
1567;SDS011;777;47.156;8.326;2023-09-19T06:53:34;2.22;;;1.20;;
1567;SDS011;777;47.156;8.326;2023-09-19T06:56:02;2.75;;;1.00;;
1567;SDS011;777;47.156;8.326;2023-09-19T06:58:31;2.45;;;0.85;;
1567;SDS011;777;47.156;8.326;2023-09-19T07:00:58;3.72;;;1.33;;
1567;SDS011;777;47.156;8.326;2023-09-19T07:03:25;3.58;;;0.98;;
1567;SDS011;777;47.156;8.326;2023-09-19T07:05:53;1.80;;;0.98;;
1567;SDS011;777;47.156;8.326;2023-09-19T07:08:22;1.65;;;1.00;;
1567;SDS011;777;47.156;8.326;2023-09-19T07:10:49;2.78;;;0.90;;
1567;SDS011;777;47.156;8.326;2023-09-19T07:13:19;1.55;;;0.88;;
1567;SDS011;777;47.156;8.326;2023-09-19T07:15:46;2.22;;;0.80;;
1567;SDS011;777;47.156;8.326;2023-09-19T07:18:15;1.60;;;0.98;;
1567;SDS011;777;47.156;8.326;2023-09-19T07:20:43;1.33;;;0.70;;
1567;SDS011;777;47.156;8.326;2023-09-19T07:23:14;2.88;;;1.10;;
1567;SDS011;777;47.156;8.326;2023-09-19T07:25:41;1.13;;;0.60;;
1567;SDS011;777;47.156;8.326;2023-09-19T07:28:09;4.05;;;1.00;;
1567;SDS011;777;47.156;8.326;2023-09-19T07:30:37;3.03;;;0.82;;
1567;SDS011;777;47.156;8.326;2023-09-19T07:33:04;1.40;;;0.70;;
1567;SDS011;777;47.156;8.326;2023-09-19T07:35:32;0.95;;;0.63;;
1567;SDS011;777;47.156;8.326;2023-09-19T07:37:59;1.52;;;0.90;;
1567;SDS011;777;47.156;8.326;2023-09-19T07:40:27;1.23;;;0.75;;
1567;SDS011;777;47.156;8.326;2023-09-19T07:42:55;1.42;;;0.80;;
1567;SDS011;777;47.156;8.326;2023-09-19T07:45:22;2.63;;;0.85;;
1567;SDS011;777;47.156;8.326;2023-09-19T07:47:51;2.22;;;0.70;;
1567;SDS011;777;47.156;8.326;2023-09-19T07:50:19;2.13;;;0.90;;
1567;SDS011;777;47.156;8.326;2023-09-19T07:52:46;1.58;;;0.75;;
1567;SDS011;777;47.156;8.326;2023-09-19T07:55:16;1.95;;;0.70;;
1567;SDS011;777;47.156;8.326;2023-09-19T07:57:45;2.53;;;1.00;;
1567;SDS011;777;47.156;8.326;2023-09-19T08:00:12;1.85;;;0.80;;
1567;SDS011;777;47.156;8.326;2023-09-19T08:02:40;2.90;;;0.90;;
1567;SDS011;777;47.156;8.326;2023-09-19T08:05:10;2.92;;;0.80;;
1567;SDS011;777;47.156;8.326;2023-09-19T08:07:41;1.00;;;0.40;;
1567;SDS011;777;47.156;8.326;2023-09-19T08:10:11;2.75;;;0.55;;
1567;SDS011;777;47.156;8.326;2023-09-19T08:12:41;2.67;;;0.82;;
1567;SDS011;777;47.156;8.326;2023-09-19T08:15:11;1.17;;;0.50;;
1567;SDS011;777;47.156;8.326;2023-09-19T08:17:39;0.93;;;0.43;;
1567;SDS011;777;47.156;8.326;2023-09-19T08:20:07;1.30;;;0.40;;
1567;SDS011;777;47.156;8.326;2023-09-19T08:22:43;1.27;;;0.43;;
1567;SDS011;777;47.156;8.326;2023-09-19T08:25:13;1.50;;;0.50;;
1567;SDS011;777;47.156;8.326;2023-09-19T08:27:42;5.13;;;0.82;;
1567;SDS011;777;47.156;8.326;2023-09-19T08:30:13;1.50;;;0.70;;
1567;SDS011;777;47.156;8.326;2023-09-19T08:32:41;1.88;;;0.68;;
1567;SDS011;777;47.156;8.326;2023-09-19T08:35:08;0.85;;;0.60;;
1567;SDS011;777;47.156;8.326;2023-09-19T08:37:36;0.85;;;0.60;;
1567;SDS011;777;47.156;8.326;2023-09-19T08:40:05;1.27;;;0.75;;
1567;SDS011;777;47.156;8.326;2023-09-19T08:42:46;2.75;;;0.80;;
1567;SDS011;777;47.156;8.326;2023-09-19T08:45:15;2.17;;;0.80;;
1567;SDS011;777;47.156;8.326;2023-09-19T08:47:45;2.58;;;1.00;;
1567;SDS011;777;47.156;8.326;2023-09-19T08:50:19;1.63;;;0.73;;
1567;SDS011;777;47.156;8.326;2023-09-19T08:52:51;3.88;;;0.90;;
1567;SDS011;777;47.156;8.326;2023-09-19T08:55:22;3.10;;;1.10;;
1567;SDS011;777;47.156;8.326;2023-09-19T08:57:55;4.20;;;0.90;;
1567;SDS011;777;47.156;8.326;2023-09-19T09:00:27;1.90;;;0.90;;
1567;SDS011;777;47.156;8.326;2023-09-19T09:02:55;1.88;;;0.80;;
1567;SDS011;777;47.156;8.326;2023-09-19T09:05:23;1.92;;;0.80;;
1567;SDS011;777;47.156;8.326;2023-09-19T09:08:03;2.38;;;0.95;;
1567;SDS011;777;47.156;8.326;2023-09-19T09:10:32;1.55;;;0.75;;
1567;SDS011;777;47.156;8.326;2023-09-19T09:13:00;2.75;;;0.80;;
1567;SDS011;777;47.156;8.326;2023-09-19T09:15:28;1.55;;;0.98;;
1567;SDS011;777;47.156;8.326;2023-09-19T09:17:58;1.33;;;0.70;;
1567;SDS011;777;47.156;8.326;2023-09-19T09:20:25;0.93;;;0.65;;
1567;SDS011;777;47.156;8.326;2023-09-19T09:22:52;1.00;;;0.52;;
1567;SDS011;777;47.156;8.326;2023-09-19T09:25:22;1.73;;;0.80;;
1567;SDS011;777;47.156;8.326;2023-09-19T09:28:00;2.15;;;0.65;;
1567;SDS011;777;47.156;8.326;2023-09-19T09:30:34;4.65;;;0.60;;
1567;SDS011;777;47.156;8.326;2023-09-19T09:33:12;1.42;;;0.50;;
1567;SDS011;777;47.156;8.326;2023-09-19T09:35:47;1.23;;;0.50;;
1567;SDS011;777;47.156;8.326;2023-09-19T09:38:17;0.82;;;0.47;;
1567;SDS011;777;47.156;8.326;2023-09-19T09:40:47;2.05;;;0.60;;
1567;SDS011;777;47.156;8.326;2023-09-19T09:43:28;3.10;;;0.80;;
1567;SDS011;777;47.156;8.326;2023-09-19T09:46:10;0.68;;;0.60;;
1567;SDS011;777;47.156;8.326;2023-09-19T09:48:55;1.73;;;0.60;;
1567;SDS011;777;47.156;8.326;2023-09-19T09:51:45;1.10;;;0.70;;
1567;SDS011;777;47.156;8.326;2023-09-19T09:54:22;1.45;;;0.60;;
1567;SDS011;777;47.156;8.326;2023-09-19T09:56:54;1.50;;;0.85;;
1567;SDS011;777;47.156;8.326;2023-09-19T09:59:43;0.82;;;0.65;;
1567;SDS011;777;47.156;8.326;2023-09-19T10:02:15;2.25;;;0.90;;
1567;SDS011;777;47.156;8.326;2023-09-19T10:04:49;1.70;;;0.70;;
1567;SDS011;777;47.156;8.326;2023-09-19T10:07:35;1.67;;;0.60;;
1567;SDS011;777;47.156;8.326;2023-09-19T10:10:07;2.28;;;0.88;;
1567;SDS011;777;47.156;8.326;2023-09-19T10:12:44;1.95;;;0.80;;
1567;SDS011;777;47.156;8.326;2023-09-19T10:15:14;1.90;;;1.02;;
1567;SDS011;777;47.156;8.326;2023-09-19T10:17:43;3.10;;;0.75;;
1567;SDS011;777;47.156;8.326;2023-09-19T10:20:14;1.30;;;0.70;;
1567;SDS011;777;47.156;8.326;2023-09-19T10:22:59;1.38;;;0.70;;
1567;SDS011;777;47.156;8.326;2023-09-19T10:25:27;2.47;;;0.80;;
1567;SDS011;777;47.156;8.326;2023-09-19T10:27:57;3.88;;;0.70;;
1567;SDS011;777;47.156;8.326;2023-09-19T10:30:29;1.27;;;0.77;;
1567;SDS011;777;47.156;8.326;2023-09-19T10:32:59;3.05;;;0.70;;
1567;SDS011;777;47.156;8.326;2023-09-19T10:35:29;1.50;;;0.70;;
1567;SDS011;777;47.156;8.326;2023-09-19T10:37:57;1.88;;;0.70;;
1567;SDS011;777;47.156;8.326;2023-09-19T10:40:26;1.65;;;0.77;;
1567;SDS011;777;47.156;8.326;2023-09-19T10:43:02;1.48;;;0.80;;
1567;SDS011;777;47.156;8.326;2023-09-19T10:45:31;1.52;;;0.85;;
1567;SDS011;777;47.156;8.326;2023-09-19T10:48:00;1.85;;;0.75;;
1567;SDS011;777;47.156;8.326;2023-09-19T10:50:29;1.92;;;0.77;;
1567;SDS011;777;47.156;8.326;2023-09-19T10:52:59;2.30;;;0.88;;
1567;SDS011;777;47.156;8.326;2023-09-19T10:55:31;0.80;;;0.52;;
1567;SDS011;777;47.156;8.326;2023-09-19T10:58:02;1.42;;;0.70;;
1567;SDS011;777;47.156;8.326;2023-09-19T11:00:51;1.45;;;0.80;;
1567;SDS011;777;47.156;8.326;2023-09-19T11:03:21;1.83;;;0.80;;
1567;SDS011;777;47.156;8.326;2023-09-19T11:06:02;2.00;;;0.80;;
1567;SDS011;777;47.156;8.326;2023-09-19T11:08:57;1.20;;;0.70;;
1567;SDS011;777;47.156;8.326;2023-09-19T11:11:49;1.13;;;0.73;;
1567;SDS011;777;47.156;8.326;2023-09-19T11:14:32;1.80;;;0.70;;
1567;SDS011;777;47.156;8.326;2023-09-19T11:20:24;1.73;;;0.70;;
1567;SDS011;777;47.156;8.326;2023-09-19T11:23:17;2.55;;;0.70;;
1567;SDS011;777;47.156;8.326;2023-09-19T11:25:51;2.08;;;0.70;;
1567;SDS011;777;47.156;8.326;2023-09-19T11:28:34;2.00;;;0.80;;
1567;SDS011;777;47.156;8.326;2023-09-19T11:34:39;2.58;;;0.70;;
1567;SDS011;777;47.156;8.326;2023-09-19T11:40:32;1.48;;;0.60;;
1567;SDS011;777;47.156;8.326;2023-09-19T11:43:03;0.98;;;0.50;;
1567;SDS011;777;47.156;8.326;2023-09-19T11:46:01;1.25;;;0.70;;
1567;SDS011;777;47.156;8.326;2023-09-19T11:48:35;1.23;;;0.73;;
1567;SDS011;777;47.156;8.326;2023-09-19T11:53:55;1.08;;;0.60;;
1567;SDS011;777;47.156;8.326;2023-09-19T11:56:25;0.98;;;0.50;;
1567;SDS011;777;47.156;8.326;2023-09-19T11:58:55;1.50;;;0.63;;
1567;SDS011;777;47.156;8.326;2023-09-19T12:01:24;1.60;;;0.50;;
1567;SDS011;777;47.156;8.326;2023-09-19T12:03:54;1.95;;;0.70;;
1567;SDS011;777;47.156;8.326;2023-09-19T12:06:23;1.80;;;0.65;;
1567;SDS011;777;47.156;8.326;2023-09-19T12:08:51;1.02;;;0.50;;
1567;SDS011;777;47.156;8.326;2023-09-19T12:11:21;1.10;;;0.52;;
1567;SDS011;777;47.156;8.326;2023-09-19T12:13:49;1.58;;;0.50;;
1567;SDS011;777;47.156;8.326;2023-09-19T12:16:20;1.92;;;0.60;;
1567;SDS011;777;47.156;8.326;2023-09-19T12:18:48;0.60;;;0.32;;
1567;SDS011;777;47.156;8.326;2023-09-19T12:21:23;1.30;;;0.50;;
1567;SDS011;777;47.156;8.326;2023-09-19T12:26:45;0.68;;;0.40;;
1567;SDS011;777;47.156;8.326;2023-09-19T12:29:14;2.05;;;0.55;;
1567;SDS011;777;47.156;8.326;2023-09-19T12:31:52;1.17;;;0.60;;
1567;SDS011;777;47.156;8.326;2023-09-19T12:34:23;3.15;;;0.75;;
1567;SDS011;777;47.156;8.326;2023-09-19T12:37:05;1.13;;;0.40;;
1567;SDS011;777;47.156;8.326;2023-09-19T12:39:42;1.50;;;0.60;;
1567;SDS011;777;47.156;8.326;2023-09-19T12:42:14;1.33;;;0.50;;
1567;SDS011;777;47.156;8.326;2023-09-19T12:44:42;3.20;;;0.43;;
1567;SDS011;777;47.156;8.326;2023-09-19T12:47:12;0.80;;;0.40;;
1567;SDS011;777;47.156;8.326;2023-09-19T12:52:39;3.53;;;0.68;;
1567;SDS011;777;47.156;8.326;2023-09-19T12:55:07;2.25;;;0.60;;
1567;SDS011;777;47.156;8.326;2023-09-19T12:57:36;1.02;;;0.50;;
1567;SDS011;777;47.156;8.326;2023-09-19T13:00:04;1.00;;;0.50;;
1567;SDS011;777;47.156;8.326;2023-09-19T13:02:37;1.65;;;0.82;;
1567;SDS011;777;47.156;8.326;2023-09-19T13:05:47;1.20;;;0.57;;
1567;SDS011;777;47.156;8.326;2023-09-19T13:08:23;1.00;;;0.47;;
1567;SDS011;777;47.156;8.326;2023-09-19T13:11:02;0.90;;;0.50;;
1567;SDS011;777;47.156;8.326;2023-09-19T13:13:32;1.35;;;0.50;;
1567;SDS011;777;47.156;8.326;2023-09-19T13:16:01;0.82;;;0.50;;
1567;SDS011;777;47.156;8.326;2023-09-19T13:18:31;1.08;;;0.70;;
1567;SDS011;777;47.156;8.326;2023-09-19T13:21:07;1.35;;;0.60;;
1567;SDS011;777;47.156;8.326;2023-09-19T13:23:37;1.75;;;0.65;;
1567;SDS011;777;47.156;8.326;2023-09-19T13:26:05;1.00;;;0.55;;
1567;SDS011;777;47.156;8.326;2023-09-19T13:28:33;1.27;;;0.50;;
1567;SDS011;777;47.156;8.326;2023-09-19T13:31:00;1.65;;;0.60;;
1567;SDS011;777;47.156;8.326;2023-09-19T13:33:27;1.00;;;0.43;;
1567;SDS011;777;47.156;8.326;2023-09-19T13:35:55;1.75;;;0.60;;
1567;SDS011;777;47.156;8.326;2023-09-19T13:38:23;1.27;;;0.55;;
1567;SDS011;777;47.156;8.326;2023-09-19T13:40:50;0.50;;;0.40;;
1567;SDS011;777;47.156;8.326;2023-09-19T13:43:18;0.82;;;0.43;;
1567;SDS011;777;47.156;8.326;2023-09-19T13:45:47;0.88;;;0.40;;
1567;SDS011;777;47.156;8.326;2023-09-19T13:48:15;1.88;;;0.50;;
1567;SDS011;777;47.156;8.326;2023-09-19T13:50:47;1.08;;;0.55;;
1567;SDS011;777;47.156;8.326;2023-09-19T13:53:16;1.52;;;0.70;;
1567;SDS011;777;47.156;8.326;2023-09-19T13:55:43;1.77;;;0.70;;
1567;SDS011;777;47.156;8.326;2023-09-19T13:58:10;0.80;;;0.38;;
1567;SDS011;777;47.156;8.326;2023-09-19T14:00:38;1.40;;;0.60;;
1567;SDS011;777;47.156;8.326;2023-09-19T14:03:05;1.10;;;0.50;;
1567;SDS011;777;47.156;8.326;2023-09-19T14:05:32;1.70;;;0.60;;
1567;SDS011;777;47.156;8.326;2023-09-19T14:07:59;1.60;;;0.55;;
1567;SDS011;777;47.156;8.326;2023-09-19T14:10:32;1.92;;;0.93;;
1567;SDS011;777;47.156;8.326;2023-09-19T14:13:04;1.27;;;0.50;;
1567;SDS011;777;47.156;8.326;2023-09-19T14:15:32;3.10;;;0.70;;
1567;SDS011;777;47.156;8.326;2023-09-19T14:18:00;1.25;;;0.55;;
1567;SDS011;777;47.156;8.326;2023-09-19T14:20:27;0.75;;;0.55;;
1567;SDS011;777;47.156;8.326;2023-09-19T14:22:54;1.90;;;0.60;;
1567;SDS011;777;47.156;8.326;2023-09-19T14:25:23;1.25;;;0.60;;
1567;SDS011;777;47.156;8.326;2023-09-19T14:27:52;2.10;;;0.68;;
1567;SDS011;777;47.156;8.326;2023-09-19T14:30:18;2.25;;;0.63;;
1567;SDS011;777;47.156;8.326;2023-09-19T14:32:46;1.42;;;0.65;;
1567;SDS011;777;47.156;8.326;2023-09-19T14:35:13;0.80;;;0.50;;
1567;SDS011;777;47.156;8.326;2023-09-19T14:37:41;1.42;;;0.60;;
1567;SDS011;777;47.156;8.326;2023-09-19T14:40:10;1.58;;;0.60;;
1567;SDS011;777;47.156;8.326;2023-09-19T14:42:41;1.48;;;0.75;;
1567;SDS011;777;47.156;8.326;2023-09-19T14:45:10;1.20;;;0.60;;
1567;SDS011;777;47.156;8.326;2023-09-19T14:47:40;2.35;;;0.60;;
1567;SDS011;777;47.156;8.326;2023-09-19T14:50:07;2.28;;;0.65;;
1567;SDS011;777;47.156;8.326;2023-09-19T14:52:35;0.80;;;0.60;;
1567;SDS011;777;47.156;8.326;2023-09-19T14:55:03;1.17;;;0.60;;
1567;SDS011;777;47.156;8.326;2023-09-19T14:57:31;0.77;;;0.50;;
1567;SDS011;777;47.156;8.326;2023-09-19T14:59:58;2.05;;;0.70;;
1567;SDS011;777;47.156;8.326;2023-09-19T15:02:27;1.45;;;0.70;;
1567;SDS011;777;47.156;8.326;2023-09-19T15:04:54;0.82;;;0.50;;
1567;SDS011;777;47.156;8.326;2023-09-19T15:07:21;1.42;;;0.60;;
1567;SDS011;777;47.156;8.326;2023-09-19T15:09:48;2.10;;;0.52;;
1567;SDS011;777;47.156;8.326;2023-09-19T15:12:15;1.48;;;0.70;;
1567;SDS011;777;47.156;8.326;2023-09-19T15:14:42;0.90;;;0.70;;
1567;SDS011;777;47.156;8.326;2023-09-19T15:17:09;1.85;;;0.68;;
1567;SDS011;777;47.156;8.326;2023-09-19T15:19:38;0.57;;;0.40;;
1567;SDS011;777;47.156;8.326;2023-09-19T15:22:05;1.08;;;0.55;;
1567;SDS011;777;47.156;8.326;2023-09-19T15:24:32;1.30;;;0.50;;
1567;SDS011;777;47.156;8.326;2023-09-19T15:26:59;1.33;;;0.50;;
1567;SDS011;777;47.156;8.326;2023-09-19T15:29:26;1.52;;;0.57;;
1567;SDS011;777;47.156;8.326;2023-09-19T15:31:54;1.40;;;0.80;;
1567;SDS011;777;47.156;8.326;2023-09-19T15:34:24;1.20;;;0.70;;
1567;SDS011;777;47.156;8.326;2023-09-19T15:36:52;1.05;;;0.57;;
1567;SDS011;777;47.156;8.326;2023-09-19T15:39:19;1.50;;;0.68;;
1567;SDS011;777;47.156;8.326;2023-09-19T15:41:47;0.90;;;0.45;;
1567;SDS011;777;47.156;8.326;2023-09-19T15:44:16;1.42;;;0.68;;
1567;SDS011;777;47.156;8.326;2023-09-19T15:46:46;2.65;;;0.57;;
1567;SDS011;777;47.156;8.326;2023-09-19T15:49:13;1.55;;;0.60;;
1567;SDS011;777;47.156;8.326;2023-09-19T15:51:40;1.63;;;0.50;;
1567;SDS011;777;47.156;8.326;2023-09-19T15:54:10;1.45;;;0.75;;
1567;SDS011;777;47.156;8.326;2023-09-19T15:56:39;1.15;;;0.60;;
1567;SDS011;777;47.156;8.326;2023-09-19T15:59:07;0.90;;;0.50;;
1567;SDS011;777;47.156;8.326;2023-09-19T16:01:37;0.90;;;0.60;;
1567;SDS011;777;47.156;8.326;2023-09-19T16:04:05;1.73;;;0.65;;
1567;SDS011;777;47.156;8.326;2023-09-19T16:06:34;0.73;;;0.50;;
1567;SDS011;777;47.156;8.326;2023-09-19T16:09:03;0.88;;;0.60;;
1567;SDS011;777;47.156;8.326;2023-09-19T16:11:33;2.95;;;0.50;;